createdAt,value
2023-05-12T00:01:19.972Z,3.70
2023-05-12T00:03:47.908Z,2.90
2023-05-12T00:06:15.858Z,3.60
2023-05-12T00:08:43.552Z,3.20
2023-05-12T00:11:11.605Z,2.90
2023-05-12T00:13:40.203Z,4.40
2023-05-12T00:16:08.027Z,3.20
2023-05-12T00:18:35.894Z,3.10
2023-05-12T00:21:03.755Z,3.00
2023-05-12T00:23:31.332Z,3.30
2023-05-12T00:25:58.983Z,3.00
2023-05-12T00:28:26.704Z,3.00
2023-05-12T00:30:54.300Z,2.70
2023-05-12T00:33:21.953Z,3.40
2023-05-12T00:35:49.635Z,3.00
2023-05-12T00:38:17.266Z,3.10
2023-05-12T00:40:44.897Z,3.50
2023-05-12T00:43:12.560Z,3.20
2023-05-12T00:45:40.597Z,3.30
2023-05-12T00:48:08.890Z,3.40
2023-05-12T00:50:37.261Z,2.60
2023-05-12T00:53:06.678Z,3.10
2023-05-12T00:55:34.418Z,3.10
2023-05-12T00:58:03.607Z,3.20
2023-05-12T01:00:31.271Z,2.80
2023-05-12T01:02:58.979Z,3.50
2023-05-12T01:05:31.921Z,3.30
2023-05-12T01:08:01.191Z,3.50
2023-05-12T01:10:28.926Z,3.70
2023-05-12T01:12:56.581Z,2.90
2023-05-12T01:15:24.388Z,3.40
2023-05-12T01:17:57.796Z,2.70
2023-05-12T01:20:28.652Z,3.10
2023-05-12T01:22:58.784Z,2.90
2023-05-12T01:25:32.608Z,3.60
2023-05-12T01:28:03.362Z,3.50
2023-05-12T01:30:32.519Z,3.60
2023-05-12T01:33:00.312Z,3.00
2023-05-12T01:35:28.129Z,3.30
2023-05-12T01:37:55.921Z,3.50
2023-05-12T01:40:23.845Z,2.90
2023-05-12T01:42:51.647Z,3.40
2023-05-12T01:45:19.290Z,3.60
2023-05-12T01:47:46.994Z,3.10
2023-05-12T01:50:14.699Z,3.30
2023-05-12T01:52:43.553Z,3.30
2023-05-12T01:55:11.234Z,3.80
2023-05-12T01:57:38.894Z,3.80
2023-05-12T02:00:08.064Z,3.40
2023-05-12T02:02:35.768Z,3.40
2023-05-12T02:05:03.635Z,3.50
2023-05-12T02:07:31.575Z,3.20
2023-05-12T02:09:59.187Z,3.40
2023-05-12T02:12:26.921Z,3.20
2023-05-12T02:14:54.513Z,3.00
2023-05-12T02:17:25.036Z,3.10
2023-05-12T02:19:52.998Z,3.10
2023-05-12T02:22:20.623Z,3.10
2023-05-12T02:24:48.263Z,3.70
2023-05-12T02:27:15.872Z,3.80
2023-05-12T02:29:43.863Z,3.70
2023-05-12T02:32:11.672Z,3.00
2023-05-12T02:34:39.858Z,3.30
2023-05-12T02:37:07.779Z,4.60
2023-05-12T02:39:35.540Z,3.60
2023-05-12T02:42:03.474Z,3.90
2023-05-12T02:44:31.158Z,3.20
2023-05-12T02:46:58.749Z,3.70
2023-05-12T02:49:26.335Z,3.50
2023-05-12T02:51:55.196Z,3.80
2023-05-12T02:54:22.901Z,3.30
2023-05-12T02:56:50.868Z,3.60
2023-05-12T02:59:18.612Z,3.60
2023-05-12T03:01:46.305Z,3.30
2023-05-12T03:04:14.510Z,3.50
2023-05-12T03:06:42.183Z,3.40
2023-05-12T03:09:10.165Z,3.40
2023-05-12T03:11:37.884Z,3.40
2023-05-12T03:14:05.544Z,3.60
2023-05-12T03:16:33.262Z,4.00
2023-05-12T03:19:00.918Z,3.20
2023-05-12T03:21:28.670Z,3.80
2023-05-12T03:23:57.393Z,3.50
2023-05-12T03:26:25.197Z,3.80
2023-05-12T03:28:52.927Z,3.70
2023-05-12T03:31:21.483Z,3.80
2023-05-12T03:33:49.127Z,3.60
2023-05-12T03:36:17.181Z,4.70
2023-05-12T03:38:45.126Z,5.70
2023-05-12T03:41:12.728Z,4.90
2023-05-12T03:43:40.570Z,4.50
2023-05-12T03:46:08.453Z,4.30
2023-05-12T03:48:36.110Z,4.80
2023-05-12T03:51:04.081Z,4.20
2023-05-12T03:53:32.299Z,4.00
2023-05-12T03:56:08.074Z,4.00
2023-05-12T03:58:35.922Z,4.50
2023-05-12T04:01:03.830Z,4.00
2023-05-12T04:03:31.786Z,3.90
2023-05-12T04:06:04.706Z,3.80
2023-05-12T04:08:32.539Z,3.50
2023-05-12T04:11:02.417Z,5.00
2023-05-12T04:13:34.059Z,4.40
2023-05-12T04:16:01.749Z,4.10
2023-05-12T04:18:29.939Z,4.50
2023-05-12T04:20:57.898Z,5.00
2023-05-12T04:23:25.876Z,4.70
2023-05-12T04:25:53.556Z,5.40
2023-05-12T04:28:21.412Z,4.70
2023-05-12T04:30:49.601Z,4.80
2023-05-12T04:33:17.245Z,4.00
2023-05-12T04:35:44.998Z,4.80
2023-05-12T04:38:13.439Z,4.20
2023-05-12T04:40:41.157Z,4.70
2023-05-12T04:43:08.734Z,3.60
2023-05-12T04:45:36.460Z,4.50
2023-05-12T04:48:04.252Z,4.30
2023-05-12T04:50:31.971Z,3.30
2023-05-12T04:52:59.571Z,3.50
2023-05-12T04:55:27.204Z,3.80
2023-05-12T04:57:54.820Z,3.00
2023-05-12T05:00:22.712Z,3.30
2023-05-12T05:02:50.523Z,3.80
2023-05-12T05:05:18.511Z,3.50
2023-05-12T05:07:46.240Z,3.10
2023-05-12T05:10:14.313Z,3.10
2023-05-12T05:12:42.010Z,3.20
2023-05-12T05:15:11.701Z,3.00
2023-05-12T05:17:39.610Z,3.20
2023-05-12T05:20:11.592Z,2.90
2023-05-12T05:22:39.864Z,3.60
2023-05-12T05:25:08.442Z,3.20
2023-05-12T05:27:36.169Z,3.90
2023-05-12T05:30:06.033Z,3.10
2023-05-12T05:32:40.278Z,3.40
2023-05-12T05:35:08.796Z,3.00
2023-05-12T05:37:36.519Z,3.30
2023-05-12T05:40:05.160Z,3.10
2023-05-12T05:42:32.821Z,4.30
2023-05-12T05:45:00.517Z,3.60
2023-05-12T05:47:28.466Z,3.40
2023-05-12T05:49:56.501Z,3.00
2023-05-12T05:52:24.465Z,3.30
2023-05-12T05:54:52.167Z,3.30
2023-05-12T05:57:19.970Z,3.10
2023-05-12T05:59:47.740Z,3.20
2023-05-12T06:02:15.629Z,2.90
2023-05-12T06:04:43.429Z,3.40
2023-05-12T06:07:11.074Z,3.00
2023-05-12T06:09:38.756Z,3.40
2023-05-12T06:12:07.284Z,3.40
2023-05-12T06:14:34.973Z,3.50
2023-05-12T06:17:02.755Z,3.00
2023-05-12T06:19:30.495Z,2.80
2023-05-12T06:21:58.338Z,2.70
2023-05-12T06:24:26.311Z,2.60
2023-05-12T06:26:54.115Z,2.70
2023-05-12T06:29:22.163Z,3.30
2023-05-12T06:31:49.908Z,3.10
2023-05-12T06:34:17.624Z,3.30
2023-05-12T06:36:45.312Z,3.80
2023-05-12T06:39:13.050Z,3.40
2023-05-12T06:41:40.811Z,3.60
2023-05-12T06:44:12.627Z,2.90
2023-05-12T06:46:40.424Z,3.10
2023-05-12T06:49:08.550Z,2.80
2023-05-12T06:51:36.792Z,3.00
2023-05-12T06:54:04.667Z,2.70
2023-05-12T06:56:32.371Z,3.30
2023-05-12T06:59:01.868Z,3.40
2023-05-12T07:01:32.485Z,3.30
2023-05-12T07:04:00.509Z,2.50
2023-05-12T07:06:28.714Z,2.60
2023-05-12T07:08:56.459Z,2.90
2023-05-12T07:11:24.186Z,2.80
2023-05-12T07:13:52.477Z,3.00
2023-05-12T07:16:20.466Z,2.50
2023-05-12T07:18:48.298Z,2.70
2023-05-12T07:21:16.242Z,3.10
2023-05-12T07:23:44.410Z,3.40
2023-05-12T07:26:12.126Z,3.30
2023-05-12T07:28:39.874Z,2.80
2023-05-12T07:31:08.567Z,3.30
2023-05-12T07:33:36.793Z,2.90
2023-05-12T07:36:04.949Z,3.00
2023-05-12T07:38:32.849Z,2.90
2023-05-12T07:41:00.743Z,2.90
2023-05-12T07:43:28.496Z,2.80
2023-05-12T07:45:56.262Z,3.20
2023-05-12T07:48:23.968Z,2.90
2023-05-12T07:50:52.167Z,2.70
2023-05-12T07:53:23.190Z,3.00
2023-05-12T07:55:51.814Z,2.80
2023-05-12T07:58:19.518Z,3.10
2023-05-12T08:00:47.198Z,2.30
2023-05-12T08:03:16.408Z,2.50
2023-05-12T08:05:44.490Z,3.10
2023-05-12T08:08:16.676Z,3.00
2023-05-12T08:10:44.834Z,2.60
2023-05-12T08:13:12.892Z,2.60
2023-05-12T08:15:40.619Z,2.60
2023-05-12T08:18:08.566Z,2.30
2023-05-12T08:20:36.327Z,3.00
2023-05-12T08:23:04.065Z,3.00
2023-05-12T08:25:31.801Z,2.40
2023-05-12T08:27:59.869Z,2.10
2023-05-12T08:30:27.718Z,2.60
2023-05-12T08:32:56.748Z,3.00
2023-05-12T08:35:28.026Z,1.90
2023-05-12T08:37:57.768Z,2.80
2023-05-12T08:40:27.348Z,2.60
2023-05-12T08:43:26.124Z,2.70
2023-05-12T08:45:57.786Z,2.70
2023-05-12T08:48:27.979Z,3.20
2023-05-12T08:50:58.200Z,2.60
2023-05-12T08:53:27.936Z,2.00
2023-05-12T08:58:41.675Z,2.20
2023-05-12T09:01:12.496Z,3.00
2023-05-12T09:03:40.393Z,2.10
2023-05-12T09:06:10.891Z,2.80
2023-05-12T09:08:40.863Z,2.80
2023-05-12T09:11:13.370Z,2.20
2023-05-12T09:14:08.807Z,2.80
2023-05-12T09:16:48.949Z,2.30
2023-05-12T09:19:21.440Z,2.30
2023-05-12T09:21:49.131Z,2.80
2023-05-12T09:24:16.916Z,2.50
2023-05-12T09:26:54.200Z,2.40
2023-05-12T09:29:31.233Z,2.30
2023-05-12T09:32:04.415Z,1.60
2023-05-12T09:34:41.629Z,1.90
2023-05-12T09:37:09.993Z,2.00
2023-05-12T09:39:37.768Z,2.30
2023-05-12T09:42:12.518Z,1.90
2023-05-12T09:44:41.480Z,1.90
2023-05-12T09:47:10.387Z,2.30
2023-05-12T09:49:38.345Z,1.70
2023-05-12T09:52:06.348Z,2.20
2023-05-12T09:54:34.619Z,1.90
2023-05-12T09:57:07.295Z,1.90
2023-05-12T09:59:38.447Z,1.80
2023-05-12T10:02:09.804Z,1.80
2023-05-12T10:04:52.580Z,2.00
2023-05-12T10:07:27.637Z,2.00
2023-05-12T10:10:00.285Z,1.70
2023-05-12T10:12:28.678Z,1.40
2023-05-12T10:14:58.184Z,1.70
2023-05-12T10:17:26.864Z,1.60
2023-05-12T10:19:56.390Z,1.60
2023-05-12T10:22:26.181Z,1.80
2023-05-12T10:24:55.506Z,1.90
2023-05-12T10:27:25.246Z,2.10
2023-05-12T10:29:54.335Z,1.30
2023-05-12T10:32:22.072Z,1.40
2023-05-12T10:34:49.730Z,1.30
2023-05-12T10:37:17.774Z,1.50
2023-05-12T10:39:52.232Z,1.80
2023-05-12T10:42:25.909Z,1.40
2023-05-12T10:44:56.942Z,1.50
2023-05-12T10:47:35.934Z,1.50
2023-05-12T10:50:03.871Z,1.40
2023-05-12T10:52:31.649Z,1.20
2023-05-12T10:55:04.588Z,1.60
2023-05-12T10:57:33.508Z,1.60
2023-05-12T11:00:04.020Z,1.80
2023-05-12T11:02:34.457Z,1.70
2023-05-12T11:05:14.323Z,1.50
2023-05-12T11:07:50.575Z,1.60
2023-05-12T11:10:19.649Z,1.80
2023-05-12T11:12:48.023Z,1.40
2023-05-12T11:15:18.124Z,1.50
2023-05-12T11:17:46.584Z,1.90
2023-05-12T11:20:26.444Z,1.90
2023-05-12T11:22:55.376Z,1.50
2023-05-12T11:25:23.415Z,1.70
2023-05-12T11:27:51.740Z,1.70
2023-05-12T11:30:21.522Z,1.70
2023-05-12T11:33:01.673Z,1.40
2023-05-12T11:35:32.552Z,1.60
2023-05-12T11:38:00.590Z,1.80
2023-05-12T11:40:28.341Z,2.10
2023-05-12T11:42:56.296Z,2.10
2023-05-12T11:45:28.780Z,1.70
2023-05-12T11:48:12.794Z,1.70
2023-05-12T11:50:44.418Z,1.60
2023-05-12T11:53:15.752Z,2.30
2023-05-12T11:55:52.863Z,2.30
2023-05-12T11:58:26.533Z,2.10
2023-05-12T12:00:55.225Z,2.00
2023-05-12T12:03:24.800Z,1.70
2023-05-12T12:06:06.707Z,2.10
2023-05-12T12:08:34.314Z,2.00
2023-05-12T12:11:04.135Z,1.70
2023-05-12T12:13:32.715Z,1.80
2023-05-12T12:16:01.014Z,1.40
2023-05-12T12:18:28.667Z,1.70
2023-05-12T12:20:56.635Z,1.50
2023-05-12T12:23:24.293Z,1.90
2023-05-12T12:25:52.046Z,1.80
2023-05-12T12:28:20.518Z,1.90
2023-05-12T12:30:48.239Z,1.60
2023-05-12T12:33:17.403Z,1.50
2023-05-12T12:35:47.779Z,1.90
2023-05-12T12:38:15.541Z,1.50
2023-05-12T12:40:43.671Z,1.60
2023-05-12T12:43:11.412Z,1.70
2023-05-12T12:45:39.125Z,2.30
2023-05-12T12:48:09.123Z,1.70
2023-05-12T12:50:37.106Z,1.70
2023-05-12T12:53:05.753Z,2.10
2023-05-12T12:55:33.820Z,1.80
2023-05-12T12:58:02.215Z,1.30
2023-05-12T13:00:30.252Z,1.70
2023-05-12T13:02:59.565Z,1.30
2023-05-12T13:05:29.982Z,1.70
2023-05-12T13:07:57.749Z,2.00
2023-05-12T13:10:26.005Z,2.00
2023-05-12T13:12:54.115Z,1.60
2023-05-12T13:15:22.566Z,1.90
2023-05-12T13:17:51.852Z,1.80
2023-05-12T13:20:20.107Z,1.70
2023-05-12T13:22:48.290Z,1.70
2023-05-12T13:25:16.062Z,1.80
2023-05-12T13:27:43.865Z,1.60
2023-05-12T13:30:13.775Z,1.50
2023-05-12T13:32:42.297Z,1.80
2023-05-12T13:35:11.249Z,2.20
2023-05-12T13:37:39.586Z,2.00
2023-05-12T13:40:08.642Z,1.50
2023-05-12T13:42:37.203Z,1.40
2023-05-12T13:45:06.677Z,1.60
2023-05-12T13:47:35.353Z,1.70
2023-05-12T13:50:04.146Z,2.10
2023-05-12T13:52:32.077Z,1.60
2023-05-12T13:54:59.907Z,1.60
2023-05-12T13:57:27.790Z,1.40
2023-05-12T13:59:57.802Z,1.70
2023-05-12T14:02:25.773Z,1.60
2023-05-12T14:04:53.718Z,1.70
2023-05-12T14:07:21.663Z,1.40
2023-05-12T14:09:49.289Z,1.70
2023-05-12T14:12:17.451Z,1.70
2023-05-12T14:14:49.832Z,1.50
2023-05-12T14:17:18.710Z,2.10
2023-05-12T14:19:46.875Z,1.90
2023-05-12T14:22:25.275Z,2.20
2023-05-12T14:24:55.522Z,1.80
2023-05-12T14:27:24.077Z,1.80
2023-05-12T14:29:51.735Z,1.60
2023-05-12T14:32:19.729Z,2.10
2023-05-12T14:34:47.523Z,1.90
2023-05-12T14:37:15.360Z,2.00
2023-05-12T14:39:43.125Z,2.00
2023-05-12T14:42:10.873Z,1.80
2023-05-12T14:44:38.658Z,2.00
2023-05-12T14:47:09.113Z,2.20
2023-05-12T14:49:37.344Z,1.60
2023-05-12T14:52:06.653Z,1.90
2023-05-12T14:54:34.746Z,1.60
2023-05-12T14:57:03.727Z,1.70
2023-05-12T14:59:31.901Z,1.90
2023-05-12T15:01:59.731Z,1.50
2023-05-12T15:04:27.648Z,1.70
2023-05-12T15:06:55.746Z,1.10
2023-05-12T15:09:23.435Z,1.30
2023-05-12T15:11:51.586Z,1.70
2023-05-12T15:14:19.259Z,1.80
2023-05-12T15:16:46.950Z,1.50
2023-05-12T15:19:15.507Z,1.60
2023-05-12T15:21:43.535Z,1.80
2023-05-12T15:24:11.148Z,2.50
2023-05-12T15:26:40.472Z,1.70
2023-05-12T15:29:08.327Z,1.80
2023-05-12T15:31:35.992Z,1.80
2023-05-12T15:34:04.498Z,1.80
2023-05-12T15:36:32.509Z,1.60
2023-05-12T15:39:00.385Z,1.40
2023-05-12T15:41:28.053Z,1.50
2023-05-12T15:43:55.698Z,1.60
2023-05-12T15:46:24.414Z,1.40
2023-05-12T15:48:52.163Z,1.30
2023-05-12T15:51:19.952Z,1.70
2023-05-12T15:53:47.690Z,1.40
2023-05-12T15:56:15.387Z,1.80
2023-05-12T15:58:44.723Z,1.80
2023-05-12T16:01:12.596Z,1.50
2023-05-12T16:03:40.390Z,1.30
2023-05-12T16:06:08.962Z,1.30
2023-05-12T16:08:36.786Z,1.80
2023-05-12T16:11:05.305Z,2.00
2023-05-12T16:13:32.988Z,2.00
2023-05-12T16:16:01.522Z,2.40
2023-05-12T16:18:32.342Z,1.60
2023-05-12T16:21:02.269Z,2.10
2023-05-12T16:23:30.301Z,1.80
2023-05-12T16:25:59.312Z,1.60
2023-05-12T16:28:27.136Z,2.00
2023-05-12T16:30:54.870Z,2.40
2023-05-12T16:33:23.353Z,1.60
2023-05-12T16:35:52.469Z,2.10
2023-05-12T16:38:20.293Z,2.20
2023-05-12T16:40:48.338Z,2.60
2023-05-12T16:43:16.258Z,2.20
2023-05-12T16:45:44.023Z,2.00
2023-05-12T16:48:11.824Z,2.50
2023-05-12T16:50:39.521Z,2.00
2023-05-12T16:53:07.288Z,2.80
2023-05-12T16:55:34.891Z,2.00
2023-05-12T16:58:02.603Z,2.00
2023-05-12T17:00:30.331Z,2.20
2023-05-12T17:02:58.198Z,3.00
2023-05-12T17:05:26.213Z,2.40
2023-05-12T17:07:53.912Z,2.70
2023-05-12T17:10:21.573Z,3.00
2023-05-12T17:12:49.266Z,2.40
2023-05-12T17:15:16.987Z,2.90
2023-05-12T17:17:44.972Z,2.00
2023-05-12T17:20:12.865Z,2.10
2023-05-12T17:22:44.394Z,2.50
2023-05-12T17:25:12.688Z,1.70
2023-05-12T17:27:40.428Z,2.20
2023-05-12T17:30:09.318Z,2.00
2023-05-12T17:32:37.464Z,3.80
2023-05-12T17:35:06.690Z,5.90
2023-05-12T17:37:35.809Z,2.20
2023-05-12T17:40:05.872Z,2.40
2023-05-12T17:42:35.426Z,2.20
2023-05-12T17:45:03.827Z,2.10
2023-05-12T17:47:31.845Z,2.70
2023-05-12T17:49:59.606Z,2.10
2023-05-12T17:52:27.436Z,2.40
2023-05-12T17:54:57.284Z,2.70
2023-05-12T17:57:24.975Z,2.80
2023-05-12T17:59:53.154Z,2.50
2023-05-12T18:02:21.472Z,2.90
2023-05-12T18:04:50.265Z,2.00
2023-05-12T18:07:18.173Z,2.20
2023-05-12T18:09:46.164Z,2.30
2023-05-12T18:12:14.242Z,2.20
2023-05-12T18:14:42.054Z,2.50
2023-05-12T18:17:09.854Z,2.20
2023-05-12T18:19:37.696Z,2.50
2023-05-12T18:22:06.225Z,2.20
2023-05-12T18:24:33.913Z,2.40
2023-05-12T18:27:02.350Z,2.50
2023-05-12T18:29:31.386Z,3.60
2023-05-12T18:31:59.183Z,2.20
2023-05-12T18:34:26.856Z,2.50
2023-05-12T18:36:54.524Z,2.20
2023-05-12T18:39:23.586Z,2.40
2023-05-12T18:41:51.637Z,2.00
2023-05-12T18:44:19.485Z,2.50
2023-05-12T18:46:47.594Z,2.10
2023-05-12T18:49:15.715Z,2.40
2023-05-12T18:51:43.412Z,2.20
2023-05-12T18:54:11.201Z,2.80
2023-05-12T18:56:39.059Z,2.30
2023-05-12T18:59:07.163Z,2.40
2023-05-12T19:01:35.189Z,2.50
2023-05-12T19:04:03.796Z,2.20
2023-05-12T19:06:32.178Z,2.50
2023-05-12T19:09:00.034Z,2.20
2023-05-12T19:11:28.451Z,2.10
2023-05-12T19:13:56.075Z,3.20
2023-05-12T19:16:23.962Z,2.10
2023-05-12T19:18:51.936Z,2.40
2023-05-12T19:21:20.085Z,2.40
2023-05-12T19:23:47.866Z,2.30
2023-05-12T19:26:15.549Z,3.20
2023-05-12T19:28:43.260Z,2.90
2023-05-12T19:31:11.052Z,3.00
2023-05-12T19:33:38.921Z,2.60
2023-05-12T19:36:07.108Z,2.80
2023-05-12T19:38:34.925Z,2.50
2023-05-12T19:41:02.746Z,3.00
2023-05-12T19:43:30.411Z,2.70
2023-05-12T19:45:58.130Z,2.60
2023-05-12T19:48:25.897Z,2.60
2023-05-12T19:50:54.547Z,2.70
2023-05-12T19:53:22.207Z,2.70
2023-05-12T19:55:49.880Z,3.00
2023-05-12T19:58:17.614Z,3.00
2023-05-12T20:00:45.249Z,2.60
2023-05-12T20:03:13.012Z,2.40
2023-05-12T20:05:41.270Z,3.10
2023-05-12T20:08:08.998Z,2.90
2023-05-12T20:10:36.661Z,3.10
2023-05-12T20:13:04.721Z,3.30
2023-05-12T20:15:34.294Z,3.00
2023-05-12T20:18:02.159Z,3.10
2023-05-12T20:20:29.868Z,3.00
2023-05-12T20:22:57.920Z,2.90
2023-05-12T20:25:27.122Z,2.80
2023-05-12T20:27:55.664Z,2.80
2023-05-12T20:30:23.408Z,2.60
2023-05-12T20:32:51.180Z,2.60
2023-05-12T20:35:19.170Z,3.70
2023-05-12T20:37:47.135Z,3.40
2023-05-12T20:40:14.982Z,2.70
2023-05-12T20:42:43.981Z,3.60
2023-05-12T20:45:12.726Z,2.90
2023-05-12T20:47:40.555Z,3.30
2023-05-12T20:50:10.007Z,3.20
2023-05-12T20:52:40.562Z,2.90
2023-05-12T20:55:09.948Z,2.90
2023-05-12T20:57:37.875Z,3.00
2023-05-12T21:00:11.395Z,3.20
2023-05-12T21:02:39.735Z,2.80
2023-05-12T21:05:07.794Z,2.70
2023-05-12T21:07:35.535Z,2.90
2023-05-12T21:10:03.826Z,3.00
2023-05-12T21:12:31.882Z,3.30
2023-05-12T21:14:59.576Z,3.40
2023-05-12T21:17:28.062Z,2.90
2023-05-12T21:19:56.124Z,3.10
2023-05-12T21:22:23.769Z,3.60
2023-05-12T21:24:51.811Z,3.60
2023-05-12T21:27:19.499Z,3.10
2023-05-12T21:29:47.156Z,3.40
2023-05-12T21:32:16.883Z,3.30
2023-05-12T21:34:45.663Z,3.20
2023-05-12T21:37:13.746Z,3.50
2023-05-12T21:39:41.515Z,3.60
2023-05-12T21:42:09.099Z,2.90
2023-05-12T21:44:36.749Z,3.10
2023-05-12T21:47:04.664Z,3.60
2023-05-12T21:49:32.359Z,3.20
2023-05-12T21:51:59.975Z,3.30
2023-05-12T21:54:27.587Z,3.30
2023-05-12T21:56:55.247Z,3.20
2023-05-12T21:59:22.881Z,3.20
2023-05-12T22:01:50.831Z,2.60
2023-05-12T22:04:19.009Z,2.70
2023-05-12T22:06:46.780Z,3.00
2023-05-12T22:09:14.491Z,2.70
2023-05-12T22:11:42.186Z,3.70
2023-05-12T22:14:10.081Z,2.80
2023-05-12T22:16:41.753Z,2.60
2023-05-12T22:19:10.574Z,4.00
2023-05-12T22:21:38.699Z,3.60
2023-05-12T22:24:06.782Z,3.00
2023-05-12T22:26:34.375Z,3.30
2023-05-12T22:29:01.992Z,3.50
2023-05-12T22:31:29.656Z,3.30
2023-05-12T22:33:57.402Z,3.00
2023-05-12T22:36:25.144Z,3.60
2023-05-12T22:38:52.779Z,3.10
2023-05-12T22:41:20.389Z,3.60
2023-05-12T22:43:48.047Z,3.20
2023-05-12T22:46:15.839Z,2.80
2023-05-12T22:48:44.027Z,3.20
2023-05-12T22:51:11.638Z,3.50
2023-05-12T22:53:41.860Z,3.10
2023-05-12T22:56:09.526Z,3.00
2023-05-12T22:58:37.234Z,3.30
2023-05-12T23:01:05.195Z,3.20
2023-05-12T23:03:33.073Z,3.10
2023-05-12T23:06:00.723Z,3.00
2023-05-12T23:08:28.325Z,3.60
2023-05-12T23:10:55.912Z,3.20
2023-05-12T23:13:23.568Z,3.20
2023-05-12T23:15:51.226Z,3.50
2023-05-12T23:18:19.534Z,3.60
2023-05-12T23:20:47.242Z,3.80
2023-05-12T23:23:14.897Z,3.90
2023-05-12T23:25:43.069Z,4.00
2023-05-12T23:28:10.688Z,3.80
2023-05-12T23:30:38.304Z,3.50
2023-05-12T23:33:06.178Z,4.00
2023-05-12T23:35:33.903Z,3.20
2023-05-12T23:38:01.554Z,3.70
2023-05-12T23:40:29.218Z,4.10
2023-05-12T23:42:56.821Z,3.50
2023-05-12T23:45:24.677Z,3.20
2023-05-12T23:47:52.920Z,8.70
2023-05-12T23:50:21.597Z,3.50
2023-05-12T23:52:54.985Z,3.70
2023-05-12T23:55:23.297Z,3.70
2023-05-12T23:57:50.987Z,3.80
